San Julian, Argentina
Current Conditions -  °F | °C
As of 7:00 PM on Tuesday 21 Oct 2014 (Local Time) from SAWG Reporting Station
Clear Clear  
Wind Chill: 57°   Ceiling: Unl
Heat Index: 57°   Visibility: 6mi
Dew Point: 34°   Wind: 5mph
Humidity: 41%   Direction: 270°W
Pressure: 29.44"   Gusts: NA
Location:  49.31°S, 67.71°W
Report Text: SAWG 212200Z 27004KT CAVOK 14/01 Q0997
Loading
Personal Weather Stations






























Interactive Weather Map New forecast layout! Learn more

10-Day Weather Forecast

Advertisements
Track Severe Weather on mobile